sensor_id;sensor_type;location;lat;lon;timestamp;P1;durP1;ratioP1;P2;durP2;ratioP2
53040;SDS011;39326;42.650;23.248;2022-08-05T00:01:41;4.00;;;3.70;;
53040;SDS011;39326;42.650;23.248;2022-08-05T00:04:08;5.03;;;3.92;;
53040;SDS011;39326;42.650;23.248;2022-08-05T00:06:34;3.97;;;3.67;;
53040;SDS011;39326;42.650;23.248;2022-08-05T00:09:01;4.43;;;3.42;;
53040;SDS011;39326;42.650;23.248;2022-08-05T00:11:27;3.72;;;3.42;;
53040;SDS011;39326;42.650;23.248;2022-08-05T00:13:54;4.30;;;3.78;;
53040;SDS011;39326;42.650;23.248;2022-08-05T00:16:20;4.35;;;3.95;;
53040;SDS011;39326;42.650;23.248;2022-08-05T00:18:46;5.22;;;3.63;;
53040;SDS011;39326;42.650;23.248;2022-08-05T00:21:13;3.70;;;3.40;;
53040;SDS011;39326;42.650;23.248;2022-08-05T00:23:42;4.60;;;3.67;;
53040;SDS011;39326;42.650;23.248;2022-08-05T00:26:09;3.92;;;3.60;;
53040;SDS011;39326;42.650;23.248;2022-08-05T00:28:36;4.18;;;3.80;;
53040;SDS011;39326;42.650;23.248;2022-08-05T00:31:03;4.18;;;3.88;;
53040;SDS011;39326;42.650;23.248;2022-08-05T00:33:30;3.83;;;3.53;;
53040;SDS011;39326;42.650;23.248;2022-08-05T00:35:57;3.90;;;3.60;;
53040;SDS011;39326;42.650;23.248;2022-08-05T00:38:23;3.80;;;3.50;;
53040;SDS011;39326;42.650;23.248;2022-08-05T00:40:50;4.43;;;3.55;;
53040;SDS011;39326;42.650;23.248;2022-08-05T00:43:18;4.03;;;3.72;;
53040;SDS011;39326;42.650;23.248;2022-08-05T00:45:45;3.88;;;3.58;;
53040;SDS011;39326;42.650;23.248;2022-08-05T00:48:13;3.85;;;3.55;;
53040;SDS011;39326;42.650;23.248;2022-08-05T00:50:40;4.25;;;3.95;;
53040;SDS011;39326;42.650;23.248;2022-08-05T00:53:07;4.60;;;4.20;;
53040;SDS011;39326;42.650;23.248;2022-08-05T00:55:33;4.97;;;4.10;;
53040;SDS011;39326;42.650;23.248;2022-08-05T00:57:59;4.57;;;4.13;;
53040;SDS011;39326;42.650;23.248;2022-08-05T01:00:26;4.03;;;3.63;;
53040;SDS011;39326;42.650;23.248;2022-08-05T01:02:54;3.92;;;3.63;;
53040;SDS011;39326;42.650;23.248;2022-08-05T01:05:21;5.10;;;3.58;;
53040;SDS011;39326;42.650;23.248;2022-08-05T01:07:47;4.22;;;3.83;;
53040;SDS011;39326;42.650;23.248;2022-08-05T01:10:13;4.10;;;3.80;;
53040;SDS011;39326;42.650;23.248;2022-08-05T01:12:44;5.30;;;4.57;;
53040;SDS011;39326;42.650;23.248;2022-08-05T01:15:16;4.05;;;3.75;;
53040;SDS011;39326;42.650;23.248;2022-08-05T01:17:52;4.43;;;4.13;;
53040;SDS011;39326;42.650;23.248;2022-08-05T01:20:36;4.63;;;3.80;;
53040;SDS011;39326;42.650;23.248;2022-08-05T01:28:56;4.30;;;3.95;;
53040;SDS011;39326;42.650;23.248;2022-08-05T01:31:40;4.38;;;3.97;;
53040;SDS011;39326;42.650;23.248;2022-08-05T01:34:14;4.07;;;3.78;;
53040;SDS011;39326;42.650;23.248;2022-08-05T01:36:48;5.18;;;4.40;;
53040;SDS011;39326;42.650;23.248;2022-08-05T01:39:19;4.78;;;4.38;;
53040;SDS011;39326;42.650;23.248;2022-08-05T01:41:47;4.45;;;4.15;;
53040;SDS011;39326;42.650;23.248;2022-08-05T01:44:15;6.15;;;3.60;;
53040;SDS011;39326;42.650;23.248;2022-08-05T01:46:42;4.07;;;3.78;;
53040;SDS011;39326;42.650;23.248;2022-08-05T01:49:10;4.50;;;4.20;;
53040;SDS011;39326;42.650;23.248;2022-08-05T01:51:40;4.30;;;3.95;;
53040;SDS011;39326;42.650;23.248;2022-08-05T01:54:07;4.20;;;3.85;;
53040;SDS011;39326;42.650;23.248;2022-08-05T01:56:36;4.57;;;4.28;;
53040;SDS011;39326;42.650;23.248;2022-08-05T01:59:07;5.35;;;4.57;;
53040;SDS011;39326;42.650;23.248;2022-08-05T02:01:36;3.97;;;3.67;;
53040;SDS011;39326;42.650;23.248;2022-08-05T02:04:03;4.53;;;4.10;;
53040;SDS011;39326;42.650;23.248;2022-08-05T02:06:31;4.68;;;4.28;;
53040;SDS011;39326;42.650;23.248;2022-08-05T02:08:58;5.38;;;4.20;;
53040;SDS011;39326;42.650;23.248;2022-08-05T02:11:24;4.82;;;4.07;;
53040;SDS011;39326;42.650;23.248;2022-08-05T02:14:16;4.30;;;4.00;;
53040;SDS011;39326;42.650;23.248;2022-08-05T02:16:51;4.05;;;3.63;;
53040;SDS011;39326;42.650;23.248;2022-08-05T02:19:23;4.28;;;3.97;;
53040;SDS011;39326;42.650;23.248;2022-08-05T02:21:55;5.18;;;4.72;;
53040;SDS011;39326;42.650;23.248;2022-08-05T02:24:31;5.35;;;4.95;;
53040;SDS011;39326;42.650;23.248;2022-08-05T02:27:02;4.97;;;4.57;;
53040;SDS011;39326;42.650;23.248;2022-08-05T02:29:31;5.43;;;4.93;;
53040;SDS011;39326;42.650;23.248;2022-08-05T02:31:59;5.50;;;4.90;;
53040;SDS011;39326;42.650;23.248;2022-08-05T02:34:27;5.50;;;4.90;;
53040;SDS011;39326;42.650;23.248;2022-08-05T02:36:56;5.63;;;5.20;;
53040;SDS011;39326;42.650;23.248;2022-08-05T02:39:24;5.25;;;4.75;;
53040;SDS011;39326;42.650;23.248;2022-08-05T02:41:52;9.90;;;5.22;;
53040;SDS011;39326;42.650;23.248;2022-08-05T02:44:19;4.72;;;4.30;;
53040;SDS011;39326;42.650;23.248;2022-08-05T02:46:48;4.78;;;4.38;;
53040;SDS011;39326;42.650;23.248;2022-08-05T02:49:16;4.85;;;4.35;;
53040;SDS011;39326;42.650;23.248;2022-08-05T02:51:43;5.35;;;4.35;;
53040;SDS011;39326;42.650;23.248;2022-08-05T02:54:11;4.57;;;4.18;;
53040;SDS011;39326;42.650;23.248;2022-08-05T02:56:40;5.20;;;4.80;;
53040;SDS011;39326;42.650;23.248;2022-08-05T02:59:08;5.03;;;4.55;;
53040;SDS011;39326;42.650;23.248;2022-08-05T03:01:36;5.22;;;4.75;;
53040;SDS011;39326;42.650;23.248;2022-08-05T03:04:07;4.63;;;4.32;;
53040;SDS011;39326;42.650;23.248;2022-08-05T03:06:37;4.50;;;4.10;;
53040;SDS011;39326;42.650;23.248;2022-08-05T03:09:05;4.97;;;4.47;;
53040;SDS011;39326;42.650;23.248;2022-08-05T03:11:32;4.82;;;4.45;;
53040;SDS011;39326;42.650;23.248;2022-08-05T03:13:59;18.08;;;5.35;;
53040;SDS011;39326;42.650;23.248;2022-08-05T03:16:25;4.65;;;4.35;;
53040;SDS011;39326;42.650;23.248;2022-08-05T03:18:51;4.70;;;4.30;;
53040;SDS011;39326;42.650;23.248;2022-08-05T03:21:17;5.30;;;4.90;;
53040;SDS011;39326;42.650;23.248;2022-08-05T03:23:43;5.18;;;4.68;;
53040;SDS011;39326;42.650;23.248;2022-08-05T03:26:10;4.97;;;4.10;;
53040;SDS011;39326;42.650;23.248;2022-08-05T03:28:37;5.18;;;4.78;;
53040;SDS011;39326;42.650;23.248;2022-08-05T03:31:03;4.20;;;3.90;;
53040;SDS011;39326;42.650;23.248;2022-08-05T03:33:29;5.05;;;4.65;;
53040;SDS011;39326;42.650;23.248;2022-08-05T03:35:56;4.30;;;4.00;;
53040;SDS011;39326;42.650;23.248;2022-08-05T03:38:23;4.95;;;4.65;;
53040;SDS011;39326;42.650;23.248;2022-08-05T03:40:50;7.03;;;4.35;;
53040;SDS011;39326;42.650;23.248;2022-08-05T03:43:20;4.05;;;3.75;;
53040;SDS011;39326;42.650;23.248;2022-08-05T03:45:48;4.13;;;3.90;;
53040;SDS011;39326;42.650;23.248;2022-08-05T03:48:16;4.20;;;3.85;;
53040;SDS011;39326;42.650;23.248;2022-08-05T03:53:14;5.13;;;4.20;;
53040;SDS011;39326;42.650;23.248;2022-08-05T03:56:01;10.65;;;4.60;;
53040;SDS011;39326;42.650;23.248;2022-08-05T03:58:30;6.13;;;4.50;;
53040;SDS011;39326;42.650;23.248;2022-08-05T04:00:59;4.63;;;4.22;;
53040;SDS011;39326;42.650;23.248;2022-08-05T04:03:27;4.55;;;4.15;;
53040;SDS011;39326;42.650;23.248;2022-08-05T04:05:56;4.95;;;4.40;;
53040;SDS011;39326;42.650;23.248;2022-08-05T04:08:23;4.95;;;4.35;;
53040;SDS011;39326;42.650;23.248;2022-08-05T04:10:51;4.40;;;3.90;;
53040;SDS011;39326;42.650;23.248;2022-08-05T04:13:17;4.03;;;3.78;;
53040;SDS011;39326;42.650;23.248;2022-08-05T04:15:45;4.88;;;4.47;;
53040;SDS011;39326;42.650;23.248;2022-08-05T04:18:12;4.28;;;3.95;;
53040;SDS011;39326;42.650;23.248;2022-08-05T04:20:39;4.63;;;4.32;;
53040;SDS011;39326;42.650;23.248;2022-08-05T04:23:07;5.00;;;4.60;;
53040;SDS011;39326;42.650;23.248;2022-08-05T04:25:34;4.95;;;4.57;;
53040;SDS011;39326;42.650;23.248;2022-08-05T04:28:01;4.65;;;4.25;;
53040;SDS011;39326;42.650;23.248;2022-08-05T04:30:27;4.88;;;4.50;;
53040;SDS011;39326;42.650;23.248;2022-08-05T04:32:53;5.90;;;5.32;;
53040;SDS011;39326;42.650;23.248;2022-08-05T04:35:19;4.88;;;4.47;;
53040;SDS011;39326;42.650;23.248;2022-08-05T04:37:46;6.13;;;4.72;;
53040;SDS011;39326;42.650;23.248;2022-08-05T04:40:12;5.10;;;4.70;;
53040;SDS011;39326;42.650;23.248;2022-08-05T04:42:38;5.07;;;4.78;;
53040;SDS011;39326;42.650;23.248;2022-08-05T04:45:04;7.35;;;4.95;;
53040;SDS011;39326;42.650;23.248;2022-08-05T04:47:31;6.22;;;5.25;;
53040;SDS011;39326;42.650;23.248;2022-08-05T04:49:57;5.28;;;4.88;;
53040;SDS011;39326;42.650;23.248;2022-08-05T04:52:24;5.90;;;5.38;;
53040;SDS011;39326;42.650;23.248;2022-08-05T04:54:50;6.65;;;5.47;;
53040;SDS011;39326;42.650;23.248;2022-08-05T04:57:17;5.85;;;5.40;;
53040;SDS011;39326;42.650;23.248;2022-08-05T04:59:43;5.22;;;4.72;;
53040;SDS011;39326;42.650;23.248;2022-08-05T05:02:10;5.82;;;5.10;;
53040;SDS011;39326;42.650;23.248;2022-08-05T05:04:36;5.57;;;5.15;;
53040;SDS011;39326;42.650;23.248;2022-08-05T05:07:02;5.63;;;5.13;;
53040;SDS011;39326;42.650;23.248;2022-08-05T05:09:28;5.80;;;5.28;;
53040;SDS011;39326;42.650;23.248;2022-08-05T05:11:54;7.43;;;4.50;;
53040;SDS011;39326;42.650;23.248;2022-08-05T05:14:20;5.93;;;5.43;;
53040;SDS011;39326;42.650;23.248;2022-08-05T05:16:46;6.47;;;5.93;;
53040;SDS011;39326;42.650;23.248;2022-08-05T05:19:12;6.85;;;6.35;;
53040;SDS011;39326;42.650;23.248;2022-08-05T05:21:38;6.55;;;6.05;;
53040;SDS011;39326;42.650;23.248;2022-08-05T05:24:04;5.97;;;5.50;;
53040;SDS011;39326;42.650;23.248;2022-08-05T05:26:30;6.78;;;6.28;;
53040;SDS011;39326;42.650;23.248;2022-08-05T05:28:57;7.63;;;6.93;;
53040;SDS011;39326;42.650;23.248;2022-08-05T05:31:23;6.82;;;6.32;;
53040;SDS011;39326;42.650;23.248;2022-08-05T05:33:49;6.60;;;6.00;;
53040;SDS011;39326;42.650;23.248;2022-08-05T05:36:15;6.13;;;5.63;;
53040;SDS011;39326;42.650;23.248;2022-08-05T05:38:41;6.72;;;6.20;;
53040;SDS011;39326;42.650;23.248;2022-08-05T05:41:07;6.85;;;6.20;;
53040;SDS011;39326;42.650;23.248;2022-08-05T05:43:33;6.20;;;5.70;;
53040;SDS011;39326;42.650;23.248;2022-08-05T05:45:59;7.00;;;6.28;;
53040;SDS011;39326;42.650;23.248;2022-08-05T05:48:25;6.47;;;5.88;;
53040;SDS011;39326;42.650;23.248;2022-08-05T05:50:51;6.28;;;5.88;;
53040;SDS011;39326;42.650;23.248;2022-08-05T05:53:17;5.20;;;4.80;;
53040;SDS011;39326;42.650;23.248;2022-08-05T05:55:44;5.78;;;5.38;;
53040;SDS011;39326;42.650;23.248;2022-08-05T05:58:11;8.18;;;6.43;;
53040;SDS011;39326;42.650;23.248;2022-08-05T06:00:38;6.13;;;5.63;;
53040;SDS011;39326;42.650;23.248;2022-08-05T06:03:04;6.80;;;6.10;;
53040;SDS011;39326;42.650;23.248;2022-08-05T06:05:30;7.00;;;6.32;;
53040;SDS011;39326;42.650;23.248;2022-08-05T06:07:56;8.13;;;6.00;;
53040;SDS011;39326;42.650;23.248;2022-08-05T06:10:24;9.05;;;6.93;;
53040;SDS011;39326;42.650;23.248;2022-08-05T06:12:50;7.65;;;6.95;;
53040;SDS011;39326;42.650;23.248;2022-08-05T06:15:16;7.15;;;6.53;;
53040;SDS011;39326;42.650;23.248;2022-08-05T06:17:42;7.63;;;6.93;;
53040;SDS011;39326;42.650;23.248;2022-08-05T06:20:08;7.35;;;6.47;;
53040;SDS011;39326;42.650;23.248;2022-08-05T06:22:34;8.05;;;7.22;;
53040;SDS011;39326;42.650;23.248;2022-08-05T06:25:00;8.30;;;7.18;;
53040;SDS011;39326;42.650;23.248;2022-08-05T06:27:28;10.25;;;6.80;;
53040;SDS011;39326;42.650;23.248;2022-08-05T06:29:54;7.70;;;6.95;;
53040;SDS011;39326;42.650;23.248;2022-08-05T06:32:20;10.32;;;6.90;;
53040;SDS011;39326;42.650;23.248;2022-08-05T06:34:46;9.85;;;7.47;;
53040;SDS011;39326;42.650;23.248;2022-08-05T06:37:13;9.55;;;7.53;;
53040;SDS011;39326;42.650;23.248;2022-08-05T06:39:39;8.73;;;7.60;;
53040;SDS011;39326;42.650;23.248;2022-08-05T06:42:05;8.00;;;7.25;;
53040;SDS011;39326;42.650;23.248;2022-08-05T06:44:31;9.38;;;7.22;;
53040;SDS011;39326;42.650;23.248;2022-08-05T06:46:58;10.18;;;7.07;;
53040;SDS011;39326;42.650;23.248;2022-08-05T06:49:24;8.35;;;7.38;;
53040;SDS011;39326;42.650;23.248;2022-08-05T06:51:51;8.27;;;7.50;;
53040;SDS011;39326;42.650;23.248;2022-08-05T06:54:17;8.52;;;7.72;;
53040;SDS011;39326;42.650;23.248;2022-08-05T06:56:43;8.98;;;7.15;;
53040;SDS011;39326;42.650;23.248;2022-08-05T06:59:08;8.73;;;7.93;;
53040;SDS011;39326;42.650;23.248;2022-08-05T07:01:38;8.68;;;7.82;;
53040;SDS011;39326;42.650;23.248;2022-08-05T07:04:04;12.55;;;7.90;;
53040;SDS011;39326;42.650;23.248;2022-08-05T07:06:30;7.50;;;6.50;;
53040;SDS011;39326;42.650;23.248;2022-08-05T07:08:56;10.23;;;7.53;;
53040;SDS011;39326;42.650;23.248;2022-08-05T07:11:22;8.98;;;8.10;;
53040;SDS011;39326;42.650;23.248;2022-08-05T07:13:48;9.82;;;7.40;;
53040;SDS011;39326;42.650;23.248;2022-08-05T07:16:33;8.57;;;7.43;;
53040;SDS011;39326;42.650;23.248;2022-08-05T07:19:17;9.43;;;7.35;;
53040;SDS011;39326;42.650;23.248;2022-08-05T07:21:47;9.30;;;6.65;;
53040;SDS011;39326;42.650;23.248;2022-08-05T07:24:14;7.70;;;6.97;;
53040;SDS011;39326;42.650;23.248;2022-08-05T07:26:41;7.43;;;6.70;;
53040;SDS011;39326;42.650;23.248;2022-08-05T07:29:08;8.20;;;7.30;;
53040;SDS011;39326;42.650;23.248;2022-08-05T07:31:34;7.72;;;7.05;;
53040;SDS011;39326;42.650;23.248;2022-08-05T07:34:00;7.57;;;6.88;;
53040;SDS011;39326;42.650;23.248;2022-08-05T07:36:27;7.97;;;7.28;;
53040;SDS011;39326;42.650;23.248;2022-08-05T07:38:54;8.43;;;7.50;;
53040;SDS011;39326;42.650;23.248;2022-08-05T07:41:20;9.13;;;6.78;;
53040;SDS011;39326;42.650;23.248;2022-08-05T07:43:47;7.40;;;6.80;;
53040;SDS011;39326;42.650;23.248;2022-08-05T07:46:14;8.40;;;7.50;;
53040;SDS011;39326;42.650;23.248;2022-08-05T07:48:40;7.95;;;7.22;;
53040;SDS011;39326;42.650;23.248;2022-08-05T07:51:06;7.35;;;6.65;;
53040;SDS011;39326;42.650;23.248;2022-08-05T07:53:32;8.25;;;7.45;;
53040;SDS011;39326;42.650;23.248;2022-08-05T07:56:00;9.15;;;7.15;;
53040;SDS011;39326;42.650;23.248;2022-08-05T07:58:27;9.65;;;7.03;;
53040;SDS011;39326;42.650;23.248;2022-08-05T08:00:53;7.53;;;6.82;;
53040;SDS011;39326;42.650;23.248;2022-08-05T08:03:19;7.50;;;6.72;;
53040;SDS011;39326;42.650;23.248;2022-08-05T08:05:45;6.85;;;6.10;;
53040;SDS011;39326;42.650;23.248;2022-08-05T08:08:15;7.05;;;6.20;;
53040;SDS011;39326;42.650;23.248;2022-08-05T08:10:41;7.45;;;6.07;;
53040;SDS011;39326;42.650;23.248;2022-08-05T08:13:08;6.03;;;5.43;;
53040;SDS011;39326;42.650;23.248;2022-08-05T08:15:34;8.15;;;5.43;;
53040;SDS011;39326;42.650;23.248;2022-08-05T08:18:00;6.90;;;5.50;;
53040;SDS011;39326;42.650;23.248;2022-08-05T08:20:26;5.88;;;5.15;;
53040;SDS011;39326;42.650;23.248;2022-08-05T08:22:55;5.05;;;4.50;;
53040;SDS011;39326;42.650;23.248;2022-08-05T08:25:27;8.00;;;4.70;;
53040;SDS011;39326;42.650;23.248;2022-08-05T08:27:55;7.07;;;5.00;;
53040;SDS011;39326;42.650;23.248;2022-08-05T08:30:21;5.35;;;4.82;;
53040;SDS011;39326;42.650;23.248;2022-08-05T08:32:47;6.05;;;4.15;;
53040;SDS011;39326;42.650;23.248;2022-08-05T08:35:13;4.50;;;4.10;;
53040;SDS011;39326;42.650;23.248;2022-08-05T08:37:39;5.60;;;4.43;;
53040;SDS011;39326;42.650;23.248;2022-08-05T08:40:05;7.38;;;5.78;;
53040;SDS011;39326;42.650;23.248;2022-08-05T08:42:32;6.03;;;5.43;;
53040;SDS011;39326;42.650;23.248;2022-08-05T08:44:58;5.85;;;4.78;;
53040;SDS011;39326;42.650;23.248;2022-08-05T08:47:27;5.72;;;5.00;;
53040;SDS011;39326;42.650;23.248;2022-08-05T08:49:55;5.78;;;5.22;;
53040;SDS011;39326;42.650;23.248;2022-08-05T08:52:23;5.88;;;5.28;;
53040;SDS011;39326;42.650;23.248;2022-08-05T08:54:56;7.45;;;5.85;;
53040;SDS011;39326;42.650;23.248;2022-08-05T08:57:22;6.68;;;5.75;;
53040;SDS011;39326;42.650;23.248;2022-08-05T08:59:49;7.63;;;4.88;;
53040;SDS011;39326;42.650;23.248;2022-08-05T09:02:15;4.32;;;3.97;;
53040;SDS011;39326;42.650;23.248;2022-08-05T09:04:44;6.65;;;4.32;;
53040;SDS011;39326;42.650;23.248;2022-08-05T09:07:11;4.05;;;3.60;;
53040;SDS011;39326;42.650;23.248;2022-08-05T09:09:37;4.32;;;3.58;;
53040;SDS011;39326;42.650;23.248;2022-08-05T09:12:04;3.83;;;3.53;;
53040;SDS011;39326;42.650;23.248;2022-08-05T09:14:33;4.13;;;3.60;;
53040;SDS011;39326;42.650;23.248;2022-08-05T09:17:00;6.60;;;4.00;;
53040;SDS011;39326;42.650;23.248;2022-08-05T09:19:31;7.72;;;3.42;;
53040;SDS011;39326;42.650;23.248;2022-08-05T09:21:57;5.07;;;4.10;;
53040;SDS011;39326;42.650;23.248;2022-08-05T09:24:24;5.15;;;4.20;;
53040;SDS011;39326;42.650;23.248;2022-08-05T09:26:51;5.07;;;4.10;;
53040;SDS011;39326;42.650;23.248;2022-08-05T09:29:20;4.28;;;3.97;;
53040;SDS011;39326;42.650;23.248;2022-08-05T09:32:04;4.97;;;3.78;;
53040;SDS011;39326;42.650;23.248;2022-08-05T09:34:47;5.10;;;4.70;;
53040;SDS011;39326;42.650;23.248;2022-08-05T09:37:23;4.03;;;3.63;;
53040;SDS011;39326;42.650;23.248;2022-08-05T09:39:50;4.05;;;3.70;;
53040;SDS011;39326;42.650;23.248;2022-08-05T09:42:17;4.15;;;3.42;;
53040;SDS011;39326;42.650;23.248;2022-08-05T09:44:45;3.95;;;3.22;;
53040;SDS011;39326;42.650;23.248;2022-08-05T09:49:46;4.43;;;3.40;;
53040;SDS011;39326;42.650;23.248;2022-08-05T09:54:52;3.97;;;3.60;;
53040;SDS011;39326;42.650;23.248;2022-08-05T09:57:31;4.40;;;3.90;;
53040;SDS011;39326;42.650;23.248;2022-08-05T10:00:04;4.78;;;3.70;;
53040;SDS011;39326;42.650;23.248;2022-08-05T10:02:40;5.97;;;3.85;;
53040;SDS011;39326;42.650;23.248;2022-08-05T10:05:12;4.00;;;3.78;;
53040;SDS011;39326;42.650;23.248;2022-08-05T10:07:42;5.65;;;4.38;;
53040;SDS011;39326;42.650;23.248;2022-08-05T10:10:11;3.50;;;3.20;;
53040;SDS011;39326;42.650;23.248;2022-08-05T10:12:43;4.38;;;3.78;;
53040;SDS011;39326;42.650;23.248;2022-08-05T10:15:20;3.85;;;3.55;;
53040;SDS011;39326;42.650;23.248;2022-08-05T10:18:02;4.80;;;3.95;;
53040;SDS011;39326;42.650;23.248;2022-08-05T10:20:30;3.97;;;3.67;;
53040;SDS011;39326;42.650;23.248;2022-08-05T10:22:57;3.75;;;3.45;;
53040;SDS011;39326;42.650;23.248;2022-08-05T10:25:24;5.57;;;3.90;;
53040;SDS011;39326;42.650;23.248;2022-08-05T10:27:51;4.18;;;3.60;;
53040;SDS011;39326;42.650;23.248;2022-08-05T10:30:18;4.25;;;3.72;;
53040;SDS011;39326;42.650;23.248;2022-08-05T10:32:45;3.95;;;3.58;;
53040;SDS011;39326;42.650;23.248;2022-08-05T10:35:13;4.43;;;3.85;;
53040;SDS011;39326;42.650;23.248;2022-08-05T10:37:40;3.80;;;3.50;;
53040;SDS011;39326;42.650;23.248;2022-08-05T10:40:09;4.82;;;4.43;;
53040;SDS011;39326;42.650;23.248;2022-08-05T10:42:43;4.32;;;3.90;;
53040;SDS011;39326;42.650;23.248;2022-08-05T10:45:14;4.18;;;3.80;;
53040;SDS011;39326;42.650;23.248;2022-08-05T10:47:42;4.05;;;3.67;;
53040;SDS011;39326;42.650;23.248;2022-08-05T10:50:09;6.13;;;4.00;;
53040;SDS011;39326;42.650;23.248;2022-08-05T10:52:40;3.70;;;3.50;;
53040;SDS011;39326;42.650;23.248;2022-08-05T10:55:08;3.58;;;3.38;;
53040;SDS011;39326;42.650;23.248;2022-08-05T10:57:36;3.78;;;3.42;;
53040;SDS011;39326;42.650;23.248;2022-08-05T11:00:12;3.72;;;3.40;;
53040;SDS011;39326;42.650;23.248;2022-08-05T11:05:32;4.10;;;3.80;;
53040;SDS011;39326;42.650;23.248;2022-08-05T11:07:59;4.40;;;3.63;;
53040;SDS011;39326;42.650;23.248;2022-08-05T11:10:27;4.15;;;3.85;;
53040;SDS011;39326;42.650;23.248;2022-08-05T11:12:53;5.50;;;4.10;;
53040;SDS011;39326;42.650;23.248;2022-08-05T11:17:49;4.20;;;3.80;;
53040;SDS011;39326;42.650;23.248;2022-08-05T11:20:38;4.38;;;4.05;;
53040;SDS011;39326;42.650;23.248;2022-08-05T11:23:25;3.70;;;3.42;;
53040;SDS011;39326;42.650;23.248;2022-08-05T11:26:08;4.13;;;3.83;;
53040;SDS011;39326;42.650;23.248;2022-08-05T11:28:38;4.25;;;3.83;;
53040;SDS011;39326;42.650;23.248;2022-08-05T11:33:34;4.47;;;3.55;;
53040;SDS011;39326;42.650;23.248;2022-08-05T11:36:05;5.28;;;3.95;;
53040;SDS011;39326;42.650;23.248;2022-08-05T11:48:52;4.20;;;3.92;;
53040;SDS011;39326;42.650;23.248;2022-08-05T11:51:20;4.60;;;4.20;;
53040;SDS011;39326;42.650;23.248;2022-08-05T11:53:47;4.30;;;4.00;;
53040;SDS011;39326;42.650;23.248;2022-08-05T11:56:13;4.53;;;4.22;;
53040;SDS011;39326;42.650;23.248;2022-08-05T11:58:41;5.05;;;3.80;;
53040;SDS011;39326;42.650;23.248;2022-08-05T12:01:10;4.68;;;3.90;;
53040;SDS011;39326;42.650;23.248;2022-08-05T12:03:40;4.18;;;3.75;;
53040;SDS011;39326;42.650;23.248;2022-08-05T12:06:10;4.10;;;3.83;;
53040;SDS011;39326;42.650;23.248;2022-08-05T12:08:46;3.53;;;3.33;;
53040;SDS011;39326;42.650;23.248;2022-08-05T12:11:21;4.43;;;4.00;;
53040;SDS011;39326;42.650;23.248;2022-08-05T12:13:56;5.47;;;4.13;;
53040;SDS011;39326;42.650;23.248;2022-08-05T12:16:25;4.72;;;4.32;;
53040;SDS011;39326;42.650;23.248;2022-08-05T12:18:53;4.43;;;4.03;;
53040;SDS011;39326;42.650;23.248;2022-08-05T12:21:21;4.30;;;4.00;;
53040;SDS011;39326;42.650;23.248;2022-08-05T12:29:24;4.68;;;4.28;;
53040;SDS011;39326;42.650;23.248;2022-08-05T12:31:58;4.72;;;4.32;;
53040;SDS011;39326;42.650;23.248;2022-08-05T12:34:29;4.10;;;3.80;;
53040;SDS011;39326;42.650;23.248;2022-08-05T12:36:58;4.43;;;4.15;;
53040;SDS011;39326;42.650;23.248;2022-08-05T12:39:26;3.80;;;3.50;;
53040;SDS011;39326;42.650;23.248;2022-08-05T12:41:58;3.88;;;3.58;;
53040;SDS011;39326;42.650;23.248;2022-08-05T12:44:25;4.95;;;3.70;;
53040;SDS011;39326;42.650;23.248;2022-08-05T12:46:53;4.22;;;3.90;;
53040;SDS011;39326;42.650;23.248;2022-08-05T12:49:20;4.35;;;4.00;;
53040;SDS011;39326;42.650;23.248;2022-08-05T12:51:54;4.00;;;3.70;;
53040;SDS011;39326;42.650;23.248;2022-08-05T12:54:22;4.82;;;4.50;;
53040;SDS011;39326;42.650;23.248;2022-08-05T12:56:54;4.20;;;3.90;;
53040;SDS011;39326;42.650;23.248;2022-08-05T12:59:21;4.57;;;4.15;;
53040;SDS011;39326;42.650;23.248;2022-08-05T13:01:55;4.18;;;3.88;;
53040;SDS011;39326;42.650;23.248;2022-08-05T13:04:39;4.30;;;4.00;;
53040;SDS011;39326;42.650;23.248;2022-08-05T13:10:54;4.18;;;3.67;;
53040;SDS011;39326;42.650;23.248;2022-08-05T13:13:25;5.47;;;3.95;;
53040;SDS011;39326;42.650;23.248;2022-08-05T13:15:54;4.25;;;3.95;;
53040;SDS011;39326;42.650;23.248;2022-08-05T13:18:20;5.05;;;4.45;;
53040;SDS011;39326;42.650;23.248;2022-08-05T13:20:47;4.10;;;3.70;;
53040;SDS011;39326;42.650;23.248;2022-08-05T13:23:13;6.45;;;4.20;;
53040;SDS011;39326;42.650;23.248;2022-08-05T13:25:39;5.25;;;4.35;;
53040;SDS011;39326;42.650;23.248;2022-08-05T13:28:06;5.22;;;4.65;;
53040;SDS011;39326;42.650;23.248;2022-08-05T13:30:32;5.10;;;4.40;;
53040;SDS011;39326;42.650;23.248;2022-08-05T13:32:57;5.53;;;4.32;;
53040;SDS011;39326;42.650;23.248;2022-08-05T13:35:23;4.65;;;4.22;;
53040;SDS011;39326;42.650;23.248;2022-08-05T13:37:50;5.50;;;4.20;;
53040;SDS011;39326;42.650;23.248;2022-08-05T13:40:16;5.05;;;4.55;;
53040;SDS011;39326;42.650;23.248;2022-08-05T13:42:43;4.00;;;3.80;;
53040;SDS011;39326;42.650;23.248;2022-08-05T13:45:09;4.55;;;4.15;;
53040;SDS011;39326;42.650;23.248;2022-08-05T13:47:36;4.88;;;4.30;;
53040;SDS011;39326;42.650;23.248;2022-08-05T13:50:03;4.40;;;3.75;;
53040;SDS011;39326;42.650;23.248;2022-08-05T13:52:30;4.25;;;3.90;;
53040;SDS011;39326;42.650;23.248;2022-08-05T13:54:57;5.13;;;4.20;;
53040;SDS011;39326;42.650;23.248;2022-08-05T13:57:23;4.22;;;3.83;;
53040;SDS011;39326;42.650;23.248;2022-08-05T13:59:49;4.57;;;4.18;;
53040;SDS011;39326;42.650;23.248;2022-08-05T14:02:15;4.22;;;3.92;;
53040;SDS011;39326;42.650;23.248;2022-08-05T14:04:44;4.20;;;3.95;;
53040;SDS011;39326;42.650;23.248;2022-08-05T14:07:31;3.85;;;3.55;;
53040;SDS011;39326;42.650;23.248;2022-08-05T14:10:05;4.15;;;3.78;;
53040;SDS011;39326;42.650;23.248;2022-08-05T14:12:32;3.90;;;3.60;;
53040;SDS011;39326;42.650;23.248;2022-08-05T14:14:58;4.15;;;3.70;;
53040;SDS011;39326;42.650;23.248;2022-08-05T14:17:24;3.67;;;3.47;;
53040;SDS011;39326;42.650;23.248;2022-08-05T14:19:54;4.43;;;3.83;;
53040;SDS011;39326;42.650;23.248;2022-08-05T14:22:20;4.40;;;4.00;;
53040;SDS011;39326;42.650;23.248;2022-08-05T14:24:46;3.95;;;3.60;;
53040;SDS011;39326;42.650;23.248;2022-08-05T14:27:13;4.25;;;3.95;;
53040;SDS011;39326;42.650;23.248;2022-08-05T14:29:39;3.88;;;3.63;;
53040;SDS011;39326;42.650;23.248;2022-08-05T14:32:05;4.32;;;3.55;;
53040;SDS011;39326;42.650;23.248;2022-08-05T14:34:32;3.78;;;3.47;;
53040;SDS011;39326;42.650;23.248;2022-08-05T14:36:58;3.65;;;3.45;;
53040;SDS011;39326;42.650;23.248;2022-08-05T14:39:24;4.13;;;3.78;;
53040;SDS011;39326;42.650;23.248;2022-08-05T14:41:50;4.22;;;3.92;;
53040;SDS011;39326;42.650;23.248;2022-08-05T14:44:16;4.40;;;4.00;;
53040;SDS011;39326;42.650;23.248;2022-08-05T14:46:42;3.20;;;3.00;;
53040;SDS011;39326;42.650;23.248;2022-08-05T14:49:08;3.90;;;3.70;;
53040;SDS011;39326;42.650;23.248;2022-08-05T14:51:35;4.78;;;4.07;;
53040;SDS011;39326;42.650;23.248;2022-08-05T14:54:01;4.13;;;3.75;;
53040;SDS011;39326;42.650;23.248;2022-08-05T14:56:27;3.75;;;3.45;;
53040;SDS011;39326;42.650;23.248;2022-08-05T14:58:55;3.60;;;3.40;;
53040;SDS011;39326;42.650;23.248;2022-08-05T15:01:21;3.63;;;3.30;;
53040;SDS011;39326;42.650;23.248;2022-08-05T15:03:47;3.50;;;3.30;;
53040;SDS011;39326;42.650;23.248;2022-08-05T15:06:13;3.30;;;3.10;;
53040;SDS011;39326;42.650;23.248;2022-08-05T15:08:40;3.47;;;3.28;;
53040;SDS011;39326;42.650;23.248;2022-08-05T15:11:06;3.30;;;3.10;;
53040;SDS011;39326;42.650;23.248;2022-08-05T15:13:33;3.85;;;3.47;;
53040;SDS011;39326;42.650;23.248;2022-08-05T15:15:59;3.70;;;3.40;;
53040;SDS011;39326;42.650;23.248;2022-08-05T15:18:26;4.32;;;3.95;;
53040;SDS011;39326;42.650;23.248;2022-08-05T15:20:52;4.35;;;3.97;;